sensor_id;sensor_type;location;lat;lon;timestamp;temperature;humidity
13898;DHT22;7019;50.766;4.474;2023-05-10T00:01:20;11.70;99.90
13898;DHT22;7019;50.766;4.474;2023-05-10T00:03:47;11.70;99.90
13898;DHT22;7019;50.766;4.474;2023-05-10T00:06:15;11.60;99.90
13898;DHT22;7019;50.766;4.474;2023-05-10T00:08:42;11.70;99.90
13898;DHT22;7019;50.766;4.474;2023-05-10T00:11:09;11.70;99.90
13898;DHT22;7019;50.766;4.474;2023-05-10T00:13:36;11.80;99.90
13898;DHT22;7019;50.766;4.474;2023-05-10T00:16:03;11.90;99.90
13898;DHT22;7019;50.766;4.474;2023-05-10T00:18:32;11.90;99.90
13898;DHT22;7019;50.766;4.474;2023-05-10T00:20:59;11.90;99.90
13898;DHT22;7019;50.766;4.474;2023-05-10T00:23:26;11.90;99.90
13898;DHT22;7019;50.766;4.474;2023-05-10T00:25:53;12.00;99.90
13898;DHT22;7019;50.766;4.474;2023-05-10T00:28:20;12.00;99.90
13898;DHT22;7019;50.766;4.474;2023-05-10T00:30:47;12.00;99.90
13898;DHT22;7019;50.766;4.474;2023-05-10T00:33:15;12.00;99.90
13898;DHT22;7019;50.766;4.474;2023-05-10T00:35:43;12.00;99.90
13898;DHT22;7019;50.766;4.474;2023-05-10T00:38:10;12.00;99.90
13898;DHT22;7019;50.766;4.474;2023-05-10T00:40:37;12.10;99.90
13898;DHT22;7019;50.766;4.474;2023-05-10T00:43:04;12.10;99.90
13898;DHT22;7019;50.766;4.474;2023-05-10T00:45:32;12.10;99.90
13898;DHT22;7019;50.766;4.474;2023-05-10T00:48:01;12.10;99.90
13898;DHT22;7019;50.766;4.474;2023-05-10T00:50:29;12.10;99.90
13898;DHT22;7019;50.766;4.474;2023-05-10T00:52:59;12.10;99.90
13898;DHT22;7019;50.766;4.474;2023-05-10T00:55:26;12.10;99.90
13898;DHT22;7019;50.766;4.474;2023-05-10T00:57:53;12.10;99.90
13898;DHT22;7019;50.766;4.474;2023-05-10T01:00:21;12.10;99.90
13898;DHT22;7019;50.766;4.474;2023-05-10T01:02:48;12.10;99.90
13898;DHT22;7019;50.766;4.474;2023-05-10T01:05:15;12.10;99.90
13898;DHT22;7019;50.766;4.474;2023-05-10T01:07:43;12.10;99.90
13898;DHT22;7019;50.766;4.474;2023-05-10T01:10:11;12.10;99.90
13898;DHT22;7019;50.766;4.474;2023-05-10T01:12:41;12.10;99.90
13898;DHT22;7019;50.766;4.474;2023-05-10T01:15:10;12.10;99.90
13898;DHT22;7019;50.766;4.474;2023-05-10T01:17:39;12.10;99.90
13898;DHT22;7019;50.766;4.474;2023-05-10T01:20:08;12.10;99.90
13898;DHT22;7019;50.766;4.474;2023-05-10T01:23:11;12.10;99.90
13898;DHT22;7019;50.766;4.474;2023-05-10T01:26:08;12.20;99.90
13898;DHT22;7019;50.766;4.474;2023-05-10T01:28:51;12.20;99.90
13898;DHT22;7019;50.766;4.474;2023-05-10T01:31:33;12.20;99.90
13898;DHT22;7019;50.766;4.474;2023-05-10T01:34:08;12.10;99.90
13898;DHT22;7019;50.766;4.474;2023-05-10T01:36:42;12.20;99.90
13898;DHT22;7019;50.766;4.474;2023-05-10T01:39:16;12.20;99.90
13898;DHT22;7019;50.766;4.474;2023-05-10T01:41:49;12.20;99.90
13898;DHT22;7019;50.766;4.474;2023-05-10T01:44:23;12.20;99.90
13898;DHT22;7019;50.766;4.474;2023-05-10T01:46:55;12.20;99.90
13898;DHT22;7019;50.766;4.474;2023-05-10T01:49:30;12.20;99.90
13898;DHT22;7019;50.766;4.474;2023-05-10T01:52:03;12.20;99.90
13898;DHT22;7019;50.766;4.474;2023-05-10T01:54:33;12.20;99.90
13898;DHT22;7019;50.766;4.474;2023-05-10T01:57:03;12.20;99.90
13898;DHT22;7019;50.766;4.474;2023-05-10T01:59:34;12.20;99.90
13898;DHT22;7019;50.766;4.474;2023-05-10T02:02:07;12.20;99.90
13898;DHT22;7019;50.766;4.474;2023-05-10T02:04:39;12.20;99.90
13898;DHT22;7019;50.766;4.474;2023-05-10T02:07:08;12.20;99.90
13898;DHT22;7019;50.766;4.474;2023-05-10T02:09:37;12.20;99.90
13898;DHT22;7019;50.766;4.474;2023-05-10T02:12:07;12.20;99.90
13898;DHT22;7019;50.766;4.474;2023-05-10T02:14:36;12.20;99.90
13898;DHT22;7019;50.766;4.474;2023-05-10T02:17:05;12.20;99.90
13898;DHT22;7019;50.766;4.474;2023-05-10T02:19:34;12.20;99.90
13898;DHT22;7019;50.766;4.474;2023-05-10T02:22:04;12.20;99.90
13898;DHT22;7019;50.766;4.474;2023-05-10T02:24:33;12.20;99.90
13898;DHT22;7019;50.766;4.474;2023-05-10T02:27:02;12.10;99.90
13898;DHT22;7019;50.766;4.474;2023-05-10T02:29:31;12.10;99.90
13898;DHT22;7019;50.766;4.474;2023-05-10T02:31:59;12.10;99.90
13898;DHT22;7019;50.766;4.474;2023-05-10T02:34:27;12.10;99.90
13898;DHT22;7019;50.766;4.474;2023-05-10T02:36:55;12.10;99.90
13898;DHT22;7019;50.766;4.474;2023-05-10T02:39:25;12.10;99.90
13898;DHT22;7019;50.766;4.474;2023-05-10T02:41:54;12.10;99.90
13898;DHT22;7019;50.766;4.474;2023-05-10T02:44:22;12.10;99.90
13898;DHT22;7019;50.766;4.474;2023-05-10T02:46:50;12.10;99.90
13898;DHT22;7019;50.766;4.474;2023-05-10T02:49:18;12.10;99.90
13898;DHT22;7019;50.766;4.474;2023-05-10T02:51:50;12.10;99.90
13898;DHT22;7019;50.766;4.474;2023-05-10T02:54:20;12.10;99.90
13898;DHT22;7019;50.766;4.474;2023-05-10T02:56:51;12.10;99.90
13898;DHT22;7019;50.766;4.474;2023-05-10T02:59:20;12.10;99.90
13898;DHT22;7019;50.766;4.474;2023-05-10T03:01:47;12.10;99.90
13898;DHT22;7019;50.766;4.474;2023-05-10T03:04:14;12.10;99.90
13898;DHT22;7019;50.766;4.474;2023-05-10T03:06:41;12.10;99.90
13898;DHT22;7019;50.766;4.474;2023-05-10T03:09:09;12.10;99.90
13898;DHT22;7019;50.766;4.474;2023-05-10T03:11:47;12.10;99.90
13898;DHT22;7019;50.766;4.474;2023-05-10T03:14:25;12.10;99.90
13898;DHT22;7019;50.766;4.474;2023-05-10T03:16:58;12.10;99.90
13898;DHT22;7019;50.766;4.474;2023-05-10T03:19:30;12.10;99.90
13898;DHT22;7019;50.766;4.474;2023-05-10T03:22:02;12.00;99.90
13898;DHT22;7019;50.766;4.474;2023-05-10T03:24:31;12.10;99.90
13898;DHT22;7019;50.766;4.474;2023-05-10T03:27:01;12.00;99.90
13898;DHT22;7019;50.766;4.474;2023-05-10T03:29:31;12.00;99.90
13898;DHT22;7019;50.766;4.474;2023-05-10T03:31:58;12.10;99.90
13898;DHT22;7019;50.766;4.474;2023-05-10T03:34:26;12.10;99.90
13898;DHT22;7019;50.766;4.474;2023-05-10T03:36:53;12.10;99.90
13898;DHT22;7019;50.766;4.474;2023-05-10T03:39:20;12.00;99.90
13898;DHT22;7019;50.766;4.474;2023-05-10T03:41:47;12.10;99.90
13898;DHT22;7019;50.766;4.474;2023-05-10T03:44:14;12.00;99.90
13898;DHT22;7019;50.766;4.474;2023-05-10T03:46:43;12.00;99.90
13898;DHT22;7019;50.766;4.474;2023-05-10T03:49:10;12.00;99.90
13898;DHT22;7019;50.766;4.474;2023-05-10T03:51:37;12.00;99.90
13898;DHT22;7019;50.766;4.474;2023-05-10T03:54:04;12.00;99.90
13898;DHT22;7019;50.766;4.474;2023-05-10T03:56:31;12.00;99.90
13898;DHT22;7019;50.766;4.474;2023-05-10T03:58:58;12.00;99.90
13898;DHT22;7019;50.766;4.474;2023-05-10T04:01:26;12.00;99.90
13898;DHT22;7019;50.766;4.474;2023-05-10T04:03:54;12.00;99.90
13898;DHT22;7019;50.766;4.474;2023-05-10T04:06:21;12.00;99.90
13898;DHT22;7019;50.766;4.474;2023-05-10T04:08:48;12.00;99.90
13898;DHT22;7019;50.766;4.474;2023-05-10T04:11:15;12.00;99.90
13898;DHT22;7019;50.766;4.474;2023-05-10T04:13:42;12.00;99.90
13898;DHT22;7019;50.766;4.474;2023-05-10T04:16:09;12.00;99.90
13898;DHT22;7019;50.766;4.474;2023-05-10T04:18:36;12.00;99.90
13898;DHT22;7019;50.766;4.474;2023-05-10T04:21:10;12.00;99.90
13898;DHT22;7019;50.766;4.474;2023-05-10T04:23:37;12.00;99.90
13898;DHT22;7019;50.766;4.474;2023-05-10T04:26:04;12.00;99.90
13898;DHT22;7019;50.766;4.474;2023-05-10T04:28:32;11.90;99.90
13898;DHT22;7019;50.766;4.474;2023-05-10T04:31:02;12.00;99.90
13898;DHT22;7019;50.766;4.474;2023-05-10T04:33:29;12.00;99.90
13898;DHT22;7019;50.766;4.474;2023-05-10T04:35:56;11.90;99.90
13898;DHT22;7019;50.766;4.474;2023-05-10T04:38:25;12.00;99.90
13898;DHT22;7019;50.766;4.474;2023-05-10T04:40:52;12.00;99.90
13898;DHT22;7019;50.766;4.474;2023-05-10T04:43:19;11.90;99.90
13898;DHT22;7019;50.766;4.474;2023-05-10T04:45:46;12.00;99.90
13898;DHT22;7019;50.766;4.474;2023-05-10T04:48:13;12.00;99.90
13898;DHT22;7019;50.766;4.474;2023-05-10T04:50:40;12.00;99.90
13898;DHT22;7019;50.766;4.474;2023-05-10T04:53:07;12.00;99.90
13898;DHT22;7019;50.766;4.474;2023-05-10T04:55:36;12.00;99.90
13898;DHT22;7019;50.766;4.474;2023-05-10T04:58:03;11.90;99.90
13898;DHT22;7019;50.766;4.474;2023-05-10T05:00:31;11.90;99.90
13898;DHT22;7019;50.766;4.474;2023-05-10T05:02:59;11.90;99.90
13898;DHT22;7019;50.766;4.474;2023-05-10T05:05:26;11.90;99.90
13898;DHT22;7019;50.766;4.474;2023-05-10T05:07:53;11.90;99.90
13898;DHT22;7019;50.766;4.474;2023-05-10T05:10:20;11.80;99.90
13898;DHT22;7019;50.766;4.474;2023-05-10T05:12:49;11.80;99.90
13898;DHT22;7019;50.766;4.474;2023-05-10T05:15:16;11.80;99.90
13898;DHT22;7019;50.766;4.474;2023-05-10T05:17:43;11.80;99.90
13898;DHT22;7019;50.766;4.474;2023-05-10T05:20:11;11.80;99.90
13898;DHT22;7019;50.766;4.474;2023-05-10T05:22:38;11.80;99.90
13898;DHT22;7019;50.766;4.474;2023-05-10T05:25:06;11.80;99.90
13898;DHT22;7019;50.766;4.474;2023-05-10T05:27:33;11.70;99.90
13898;DHT22;7019;50.766;4.474;2023-05-10T05:30:02;11.70;99.90
13898;DHT22;7019;50.766;4.474;2023-05-10T05:32:30;11.70;99.90
13898;DHT22;7019;50.766;4.474;2023-05-10T05:34:57;11.80;99.90
13898;DHT22;7019;50.766;4.474;2023-05-10T05:37:24;11.70;99.90
13898;DHT22;7019;50.766;4.474;2023-05-10T05:39:51;11.70;99.90
13898;DHT22;7019;50.766;4.474;2023-05-10T05:42:20;11.70;99.90
13898;DHT22;7019;50.766;4.474;2023-05-10T05:44:47;11.70;99.90
13898;DHT22;7019;50.766;4.474;2023-05-10T05:47:15;11.60;99.90
13898;DHT22;7019;50.766;4.474;2023-05-10T05:49:43;11.70;99.90
13898;DHT22;7019;50.766;4.474;2023-05-10T05:52:11;11.70;99.90
13898;DHT22;7019;50.766;4.474;2023-05-10T05:54:38;11.60;99.90
13898;DHT22;7019;50.766;4.474;2023-05-10T05:57:05;11.60;99.90
13898;DHT22;7019;50.766;4.474;2023-05-10T05:59:33;11.60;99.90
13898;DHT22;7019;50.766;4.474;2023-05-10T06:02:00;11.50;99.90
13898;DHT22;7019;50.766;4.474;2023-05-10T06:04:28;11.60;99.90
13898;DHT22;7019;50.766;4.474;2023-05-10T06:06:55;11.60;99.90
13898;DHT22;7019;50.766;4.474;2023-05-10T06:09:22;11.60;99.90
13898;DHT22;7019;50.766;4.474;2023-05-10T06:11:50;11.60;99.90
13898;DHT22;7019;50.766;4.474;2023-05-10T06:14:17;11.70;99.90
13898;DHT22;7019;50.766;4.474;2023-05-10T06:16:46;11.70;99.90
13898;DHT22;7019;50.766;4.474;2023-05-10T06:19:13;11.70;99.90
13898;DHT22;7019;50.766;4.474;2023-05-10T06:21:42;11.80;99.90
13898;DHT22;7019;50.766;4.474;2023-05-10T06:24:09;11.90;99.90
13898;DHT22;7019;50.766;4.474;2023-05-10T06:26:36;11.90;99.90
13898;DHT22;7019;50.766;4.474;2023-05-10T06:29:03;11.90;99.90
13898;DHT22;7019;50.766;4.474;2023-05-10T06:31:30;11.90;99.90
13898;DHT22;7019;50.766;4.474;2023-05-10T06:33:57;11.80;99.90
13898;DHT22;7019;50.766;4.474;2023-05-10T06:36:24;11.90;99.90
13898;DHT22;7019;50.766;4.474;2023-05-10T06:38:53;11.90;99.90
13898;DHT22;7019;50.766;4.474;2023-05-10T06:41:20;12.00;99.90
13898;DHT22;7019;50.766;4.474;2023-05-10T06:43:47;12.10;99.90
13898;DHT22;7019;50.766;4.474;2023-05-10T06:46:14;12.10;99.90
13898;DHT22;7019;50.766;4.474;2023-05-10T06:48:41;12.20;99.90
13898;DHT22;7019;50.766;4.474;2023-05-10T06:51:08;12.20;99.90
13898;DHT22;7019;50.766;4.474;2023-05-10T06:53:35;12.20;99.90
13898;DHT22;7019;50.766;4.474;2023-05-10T06:56:04;12.20;99.90
13898;DHT22;7019;50.766;4.474;2023-05-10T06:58:31;12.10;99.90
13898;DHT22;7019;50.766;4.474;2023-05-10T07:01:02;12.10;99.90
13898;DHT22;7019;50.766;4.474;2023-05-10T07:03:29;12.10;99.90
13898;DHT22;7019;50.766;4.474;2023-05-10T07:06:00;12.10;99.90
13898;DHT22;7019;50.766;4.474;2023-05-10T07:08:30;12.10;99.90
13898;DHT22;7019;50.766;4.474;2023-05-10T07:11:01;12.10;99.90
13898;DHT22;7019;50.766;4.474;2023-05-10T07:13:30;12.20;99.90
13898;DHT22;7019;50.766;4.474;2023-05-10T07:15:57;12.20;99.90
13898;DHT22;7019;50.766;4.474;2023-05-10T07:18:25;12.20;99.90
13898;DHT22;7019;50.766;4.474;2023-05-10T07:20:52;12.20;99.90
13898;DHT22;7019;50.766;4.474;2023-05-10T07:23:19;12.30;99.90
13898;DHT22;7019;50.766;4.474;2023-05-10T07:25:47;12.20;99.90
13898;DHT22;7019;50.766;4.474;2023-05-10T07:28:14;12.20;99.90
13898;DHT22;7019;50.766;4.474;2023-05-10T07:30:43;12.10;99.90
13898;DHT22;7019;50.766;4.474;2023-05-10T07:33:11;12.10;99.90
13898;DHT22;7019;50.766;4.474;2023-05-10T07:35:39;12.10;99.90
13898;DHT22;7019;50.766;4.474;2023-05-10T07:38:06;12.00;99.90
13898;DHT22;7019;50.766;4.474;2023-05-10T07:40:38;12.00;99.90
13898;DHT22;7019;50.766;4.474;2023-05-10T07:43:08;12.00;99.90
13898;DHT22;7019;50.766;4.474;2023-05-10T07:45:35;12.00;99.90
13898;DHT22;7019;50.766;4.474;2023-05-10T07:48:04;12.00;99.90
13898;DHT22;7019;50.766;4.474;2023-05-10T07:50:31;12.00;99.90
13898;DHT22;7019;50.766;4.474;2023-05-10T07:52:58;12.10;99.90
13898;DHT22;7019;50.766;4.474;2023-05-10T07:55:25;12.00;99.90
13898;DHT22;7019;50.766;4.474;2023-05-10T07:57:52;12.10;99.90
13898;DHT22;7019;50.766;4.474;2023-05-10T08:00:20;12.10;99.90
13898;DHT22;7019;50.766;4.474;2023-05-10T08:02:57;12.10;99.90
13898;DHT22;7019;50.766;4.474;2023-05-10T08:05:26;12.00;99.90
13898;DHT22;7019;50.766;4.474;2023-05-10T08:07:53;12.00;99.90
13898;DHT22;7019;50.766;4.474;2023-05-10T08:10:20;12.00;99.90
13898;DHT22;7019;50.766;4.474;2023-05-10T08:12:48;12.10;99.90
13898;DHT22;7019;50.766;4.474;2023-05-10T08:15:19;12.10;99.90
13898;DHT22;7019;50.766;4.474;2023-05-10T08:17:48;12.10;99.90
13898;DHT22;7019;50.766;4.474;2023-05-10T08:20:15;12.10;99.90
13898;DHT22;7019;50.766;4.474;2023-05-10T08:22:46;12.10;99.90
13898;DHT22;7019;50.766;4.474;2023-05-10T08:25:14;12.10;99.90
13898;DHT22;7019;50.766;4.474;2023-05-10T08:27:41;12.10;99.90
13898;DHT22;7019;50.766;4.474;2023-05-10T08:30:09;12.10;99.90
13898;DHT22;7019;50.766;4.474;2023-05-10T08:32:36;12.20;99.90
13898;DHT22;7019;50.766;4.474;2023-05-10T08:35:04;12.30;99.90
13898;DHT22;7019;50.766;4.474;2023-05-10T08:37:31;12.30;99.90
13898;DHT22;7019;50.766;4.474;2023-05-10T08:40:00;12.30;99.90
13898;DHT22;7019;50.766;4.474;2023-05-10T08:42:30;12.30;99.90
13898;DHT22;7019;50.766;4.474;2023-05-10T08:45:04;12.40;99.90
13898;DHT22;7019;50.766;4.474;2023-05-10T08:47:33;12.40;99.90
13898;DHT22;7019;50.766;4.474;2023-05-10T08:50:14;12.40;99.90
13898;DHT22;7019;50.766;4.474;2023-05-10T08:52:55;12.40;99.90
13898;DHT22;7019;50.766;4.474;2023-05-10T08:55:44;12.40;99.90
13898;DHT22;7019;50.766;4.474;2023-05-10T08:58:17;12.40;99.90
13898;DHT22;7019;50.766;4.474;2023-05-10T09:00:49;12.40;99.90
13898;DHT22;7019;50.766;4.474;2023-05-10T09:03:18;12.30;99.90
13898;DHT22;7019;50.766;4.474;2023-05-10T09:05:45;12.30;99.90
13898;DHT22;7019;50.766;4.474;2023-05-10T09:08:13;12.30;99.90
13898;DHT22;7019;50.766;4.474;2023-05-10T09:10:43;12.30;99.90
13898;DHT22;7019;50.766;4.474;2023-05-10T09:13:13;12.20;99.90
13898;DHT22;7019;50.766;4.474;2023-05-10T09:15:40;12.30;99.90
13898;DHT22;7019;50.766;4.474;2023-05-10T09:18:08;12.40;99.90
13898;DHT22;7019;50.766;4.474;2023-05-10T09:20:35;12.40;99.90
13898;DHT22;7019;50.766;4.474;2023-05-10T09:23:02;12.30;99.90
13898;DHT22;7019;50.766;4.474;2023-05-10T09:25:29;12.30;99.90
13898;DHT22;7019;50.766;4.474;2023-05-10T09:28:00;12.30;99.90
13898;DHT22;7019;50.766;4.474;2023-05-10T09:30:28;12.40;99.90
13898;DHT22;7019;50.766;4.474;2023-05-10T09:32:56;12.60;99.90
13898;DHT22;7019;50.766;4.474;2023-05-10T09:35:25;12.70;99.90
13898;DHT22;7019;50.766;4.474;2023-05-10T09:37:54;12.80;99.90
13898;DHT22;7019;50.766;4.474;2023-05-10T09:40:24;12.80;99.90
13898;DHT22;7019;50.766;4.474;2023-05-10T09:42:52;12.80;99.90
13898;DHT22;7019;50.766;4.474;2023-05-10T09:45:22;12.80;99.90
13898;DHT22;7019;50.766;4.474;2023-05-10T09:47:50;12.90;99.90
13898;DHT22;7019;50.766;4.474;2023-05-10T09:50:18;13.00;99.90
13898;DHT22;7019;50.766;4.474;2023-05-10T09:52:50;12.90;99.90
13898;DHT22;7019;50.766;4.474;2023-05-10T09:55:18;12.90;99.90
13898;DHT22;7019;50.766;4.474;2023-05-10T09:57:46;13.00;99.90
13898;DHT22;7019;50.766;4.474;2023-05-10T10:00:18;13.10;99.90
13898;DHT22;7019;50.766;4.474;2023-05-10T10:02:53;13.10;99.90
13898;DHT22;7019;50.766;4.474;2023-05-10T10:05:20;13.20;99.90
13898;DHT22;7019;50.766;4.474;2023-05-10T10:07:48;13.30;99.90
13898;DHT22;7019;50.766;4.474;2023-05-10T10:10:16;13.30;99.90
13898;DHT22;7019;50.766;4.474;2023-05-10T10:12:44;13.30;99.90
13898;DHT22;7019;50.766;4.474;2023-05-10T10:15:11;13.40;99.90
13898;DHT22;7019;50.766;4.474;2023-05-10T10:17:39;13.60;99.90
13898;DHT22;7019;50.766;4.474;2023-05-10T10:20:10;13.70;99.90
13898;DHT22;7019;50.766;4.474;2023-05-10T10:22:37;13.80;99.90
13898;DHT22;7019;50.766;4.474;2023-05-10T10:25:05;14.00;99.90
13898;DHT22;7019;50.766;4.474;2023-05-10T10:27:39;14.00;99.90
13898;DHT22;7019;50.766;4.474;2023-05-10T10:30:16;14.20;99.90
13898;DHT22;7019;50.766;4.474;2023-05-10T10:33:10;14.20;99.90
13898;DHT22;7019;50.766;4.474;2023-05-10T10:35:42;14.40;99.90
13898;DHT22;7019;50.766;4.474;2023-05-10T10:38:12;14.60;99.90
13898;DHT22;7019;50.766;4.474;2023-05-10T10:40:39;14.90;99.90
13898;DHT22;7019;50.766;4.474;2023-05-10T10:43:22;15.20;99.90
13898;DHT22;7019;50.766;4.474;2023-05-10T10:46:11;15.50;99.90
13898;DHT22;7019;50.766;4.474;2023-05-10T10:48:39;15.50;99.90
13898;DHT22;7019;50.766;4.474;2023-05-10T10:51:08;15.40;99.90
13898;DHT22;7019;50.766;4.474;2023-05-10T10:53:37;15.30;99.90
13898;DHT22;7019;50.766;4.474;2023-05-10T10:56:06;15.20;99.90
13898;DHT22;7019;50.766;4.474;2023-05-10T10:58:35;15.20;99.90
13898;DHT22;7019;50.766;4.474;2023-05-10T11:01:13;15.10;99.90
13898;DHT22;7019;50.766;4.474;2023-05-10T11:06:34;14.90;99.90
13898;DHT22;7019;50.766;4.474;2023-05-10T11:09:06;14.90;99.90
13898;DHT22;7019;50.766;4.474;2023-05-10T11:11:34;14.90;99.90
13898;DHT22;7019;50.766;4.474;2023-05-10T11:14:04;15.10;99.90
13898;DHT22;7019;50.766;4.474;2023-05-10T11:16:41;15.00;99.90
13898;DHT22;7019;50.766;4.474;2023-05-10T11:19:11;15.00;99.90
13898;DHT22;7019;50.766;4.474;2023-05-10T11:21:46;15.00;99.90
13898;DHT22;7019;50.766;4.474;2023-05-10T11:24:15;14.90;99.90
13898;DHT22;7019;50.766;4.474;2023-05-10T11:26:42;14.90;99.90
13898;DHT22;7019;50.766;4.474;2023-05-10T11:29:10;14.90;99.90
13898;DHT22;7019;50.766;4.474;2023-05-10T11:31:42;15.00;99.90
13898;DHT22;7019;50.766;4.474;2023-05-10T11:34:10;15.10;99.90
13898;DHT22;7019;50.766;4.474;2023-05-10T11:36:38;15.10;99.90
13898;DHT22;7019;50.766;4.474;2023-05-10T11:39:06;15.10;99.90
13898;DHT22;7019;50.766;4.474;2023-05-10T11:41:34;15.10;99.90
13898;DHT22;7019;50.766;4.474;2023-05-10T11:44:02;15.10;99.90
13898;DHT22;7019;50.766;4.474;2023-05-10T11:46:29;15.20;99.90
13898;DHT22;7019;50.766;4.474;2023-05-10T11:48:58;15.30;99.90
13898;DHT22;7019;50.766;4.474;2023-05-10T11:51:26;15.10;99.90
13898;DHT22;7019;50.766;4.474;2023-05-10T11:53:54;15.20;99.90
13898;DHT22;7019;50.766;4.474;2023-05-10T11:56:23;15.20;99.90
13898;DHT22;7019;50.766;4.474;2023-05-10T11:58:55;15.20;99.90
13898;DHT22;7019;50.766;4.474;2023-05-10T12:01:24;15.30;99.90
13898;DHT22;7019;50.766;4.474;2023-05-10T12:03:53;15.30;99.90
13898;DHT22;7019;50.766;4.474;2023-05-10T12:06:21;15.30;99.90
13898;DHT22;7019;50.766;4.474;2023-05-10T12:08:49;15.40;99.90
13898;DHT22;7019;50.766;4.474;2023-05-10T12:11:18;15.40;99.90
13898;DHT22;7019;50.766;4.474;2023-05-10T12:13:48;15.50;99.90
13898;DHT22;7019;50.766;4.474;2023-05-10T12:16:19;15.60;99.90
13898;DHT22;7019;50.766;4.474;2023-05-10T12:18:48;15.70;99.90
13898;DHT22;7019;50.766;4.474;2023-05-10T12:21:17;15.80;99.90
13898;DHT22;7019;50.766;4.474;2023-05-10T12:23:46;15.90;99.90
13898;DHT22;7019;50.766;4.474;2023-05-10T12:26:13;16.00;99.90
13898;DHT22;7019;50.766;4.474;2023-05-10T12:28:40;16.10;99.90
13898;DHT22;7019;50.766;4.474;2023-05-10T12:31:09;16.10;99.90
13898;DHT22;7019;50.766;4.474;2023-05-10T12:33:37;16.20;99.90
13898;DHT22;7019;50.766;4.474;2023-05-10T12:36:07;16.10;99.90
13898;DHT22;7019;50.766;4.474;2023-05-10T12:38:36;16.20;99.90
13898;DHT22;7019;50.766;4.474;2023-05-10T12:41:06;16.30;99.90
13898;DHT22;7019;50.766;4.474;2023-05-10T12:43:34;16.50;99.90
13898;DHT22;7019;50.766;4.474;2023-05-10T12:46:06;16.40;99.90
13898;DHT22;7019;50.766;4.474;2023-05-10T12:48:35;16.50;99.90
13898;DHT22;7019;50.766;4.474;2023-05-10T12:51:03;16.50;99.90
13898;DHT22;7019;50.766;4.474;2023-05-10T12:53:30;16.50;99.90
13898;DHT22;7019;50.766;4.474;2023-05-10T12:55:57;16.50;99.90
13898;DHT22;7019;50.766;4.474;2023-05-10T12:58:25;16.60;99.90
13898;DHT22;7019;50.766;4.474;2023-05-10T13:00:52;16.70;99.90
13898;DHT22;7019;50.766;4.474;2023-05-10T13:03:19;16.60;99.90
13898;DHT22;7019;50.766;4.474;2023-05-10T13:05:48;16.60;99.90
13898;DHT22;7019;50.766;4.474;2023-05-10T13:08:15;16.50;99.90
13898;DHT22;7019;50.766;4.474;2023-05-10T13:10:42;16.50;99.90
13898;DHT22;7019;50.766;4.474;2023-05-10T13:13:09;16.50;99.90
13898;DHT22;7019;50.766;4.474;2023-05-10T13:15:36;16.50;99.90
13898;DHT22;7019;50.766;4.474;2023-05-10T13:18:03;16.40;99.90
13898;DHT22;7019;50.766;4.474;2023-05-10T13:20:30;16.20;99.90
13898;DHT22;7019;50.766;4.474;2023-05-10T13:22:59;16.20;99.90
13898;DHT22;7019;50.766;4.474;2023-05-10T13:25:26;16.10;99.90
13898;DHT22;7019;50.766;4.474;2023-05-10T13:27:53;16.10;99.90
13898;DHT22;7019;50.766;4.474;2023-05-10T13:30:20;15.80;99.90
13898;DHT22;7019;50.766;4.474;2023-05-10T13:32:48;15.80;99.90
13898;DHT22;7019;50.766;4.474;2023-05-10T13:35:15;15.70;99.90
13898;DHT22;7019;50.766;4.474;2023-05-10T13:37:42;15.80;99.90
13898;DHT22;7019;50.766;4.474;2023-05-10T13:40:11;15.80;99.90
13898;DHT22;7019;50.766;4.474;2023-05-10T13:42:39;15.80;99.90
13898;DHT22;7019;50.766;4.474;2023-05-10T13:45:07;16.10;99.90
13898;DHT22;7019;50.766;4.474;2023-05-10T13:47:34;16.20;99.90
13898;DHT22;7019;50.766;4.474;2023-05-10T13:50:01;16.30;99.90
13898;DHT22;7019;50.766;4.474;2023-05-10T13:52:29;16.40;99.90
13898;DHT22;7019;50.766;4.474;2023-05-10T13:54:56;16.50;99.90
13898;DHT22;7019;50.766;4.474;2023-05-10T13:57:24;16.70;99.90
13898;DHT22;7019;50.766;4.474;2023-05-10T13:59:51;16.70;99.90
13898;DHT22;7019;50.766;4.474;2023-05-10T14:02:19;16.60;99.90
13898;DHT22;7019;50.766;4.474;2023-05-10T14:04:46;16.60;99.90
13898;DHT22;7019;50.766;4.474;2023-05-10T14:07:13;16.70;99.90
13898;DHT22;7019;50.766;4.474;2023-05-10T14:09:40;16.70;99.90
13898;DHT22;7019;50.766;4.474;2023-05-10T14:12:07;16.60;99.90
13898;DHT22;7019;50.766;4.474;2023-05-10T14:14:36;16.60;99.90
13898;DHT22;7019;50.766;4.474;2023-05-10T14:17:03;16.60;99.90
13898;DHT22;7019;50.766;4.474;2023-05-10T14:19:30;16.70;99.90
13898;DHT22;7019;50.766;4.474;2023-05-10T14:21:58;16.80;99.90
13898;DHT22;7019;50.766;4.474;2023-05-10T14:24:25;17.00;99.90
13898;DHT22;7019;50.766;4.474;2023-05-10T14:26:52;17.00;99.90
13898;DHT22;7019;50.766;4.474;2023-05-10T14:29:19;17.10;99.90
13898;DHT22;7019;50.766;4.474;2023-05-10T14:31:48;17.10;99.90
13898;DHT22;7019;50.766;4.474;2023-05-10T14:34:15;17.20;99.90
13898;DHT22;7019;50.766;4.474;2023-05-10T14:36:42;17.20;99.90
13898;DHT22;7019;50.766;4.474;2023-05-10T14:39:09;17.00;99.90
13898;DHT22;7019;50.766;4.474;2023-05-10T14:41:38;16.80;99.90
13898;DHT22;7019;50.766;4.474;2023-05-10T14:44:06;16.70;99.90
13898;DHT22;7019;50.766;4.474;2023-05-10T14:46:33;16.70;99.90
13898;DHT22;7019;50.766;4.474;2023-05-10T14:49:02;16.70;99.90
13898;DHT22;7019;50.766;4.474;2023-05-10T14:51:29;16.70;99.90
13898;DHT22;7019;50.766;4.474;2023-05-10T14:53:57;16.80;99.90
13898;DHT22;7019;50.766;4.474;2023-05-10T14:56:24;16.80;99.90
13898;DHT22;7019;50.766;4.474;2023-05-10T14:58:51;16.60;99.90
13898;DHT22;7019;50.766;4.474;2023-05-10T15:01:18;16.30;99.90
13898;DHT22;7019;50.766;4.474;2023-05-10T15:03:45;16.10;99.90
13898;DHT22;7019;50.766;4.474;2023-05-10T15:06:15;15.90;99.90
13898;DHT22;7019;50.766;4.474;2023-05-10T15:08:42;15.70;99.90
13898;DHT22;7019;50.766;4.474;2023-05-10T15:11:10;15.50;99.90
13898;DHT22;7019;50.766;4.474;2023-05-10T15:13:37;15.40;99.90
13898;DHT22;7019;50.766;4.474;2023-05-10T15:16:04;15.30;99.90
13898;DHT22;7019;50.766;4.474;2023-05-10T15:18:31;15.10;99.90
13898;DHT22;7019;50.766;4.474;2023-05-10T15:20:58;15.00;99.90
13898;DHT22;7019;50.766;4.474;2023-05-10T15:23:26;14.90;99.90
13898;DHT22;7019;50.766;4.474;2023-05-10T15:26:00;14.80;99.90
13898;DHT22;7019;50.766;4.474;2023-05-10T15:28:29;14.80;99.90
13898;DHT22;7019;50.766;4.474;2023-05-10T15:30:59;14.80;99.90
13898;DHT22;7019;50.766;4.474;2023-05-10T15:33:32;14.70;99.90
13898;DHT22;7019;50.766;4.474;2023-05-10T15:35:59;14.70;99.90
13898;DHT22;7019;50.766;4.474;2023-05-10T15:38:28;14.70;99.90
13898;DHT22;7019;50.766;4.474;2023-05-10T15:40:56;14.70;99.90
13898;DHT22;7019;50.766;4.474;2023-05-10T15:43:23;14.60;99.90
13898;DHT22;7019;50.766;4.474;2023-05-10T15:45:50;14.60;99.90
13898;DHT22;7019;50.766;4.474;2023-05-10T15:48:17;14.60;99.90
13898;DHT22;7019;50.766;4.474;2023-05-10T15:50:53;14.60;99.90
13898;DHT22;7019;50.766;4.474;2023-05-10T15:53:24;14.60;99.90
13898;DHT22;7019;50.766;4.474;2023-05-10T15:55:53;14.60;99.90
13898;DHT22;7019;50.766;4.474;2023-05-10T15:58:22;14.60;99.90